createdAt,value
2019-02-02T00:01:06.177Z,21.97
2019-02-02T00:03:33.610Z,21.60
2019-02-02T00:06:00.887Z,24.00
2019-02-02T00:08:28.478Z,22.57
2019-02-02T00:10:55.765Z,24.40
2019-02-02T00:13:23.051Z,28.80
2019-02-02T00:15:50.593Z,25.53
2019-02-02T00:18:17.833Z,23.27
2019-02-02T00:20:45.343Z,23.83
2019-02-02T00:23:12.692Z,28.40
2019-02-02T00:25:40.126Z,28.70
2019-02-02T00:28:07.723Z,31.03
2019-02-02T00:30:34.969Z,26.23
2019-02-02T00:33:02.257Z,28.00
2019-02-02T00:35:29.510Z,25.73
2019-02-02T00:37:56.864Z,26.47
2019-02-02T00:40:24.112Z,24.53
2019-02-02T00:42:51.391Z,25.60
2019-02-02T00:45:19.477Z,24.20
2019-02-02T00:47:46.954Z,27.23
2019-02-02T00:50:14.870Z,27.20
2019-02-02T00:52:42.284Z,29.10
2019-02-02T00:55:11.333Z,24.17
2019-02-02T00:57:38.610Z,24.30
2019-02-02T01:00:10.118Z,27.57
2019-02-02T01:02:37.561Z,22.90
2019-02-02T01:05:06.353Z,25.47
2019-02-02T01:07:33.631Z,25.40
2019-02-02T01:10:00.881Z,32.20
2019-02-02T01:12:28.168Z,30.27
2019-02-02T01:14:55.684Z,25.40
2019-02-02T01:17:22.964Z,28.07
2019-02-02T01:19:50.213Z,24.93
2019-02-02T01:22:17.762Z,22.90
2019-02-02T01:24:45.044Z,20.83
2019-02-02T01:27:12.295Z,26.40
2019-02-02T01:29:39.573Z,22.67
2019-02-02T01:32:06.822Z,21.63
2019-02-02T01:34:34.073Z,20.53
2019-02-02T01:37:01.350Z,24.00
2019-02-02T01:39:28.907Z,25.40
2019-02-02T01:41:56.189Z,25.63
2019-02-02T01:44:23.682Z,27.30
2019-02-02T01:46:51.003Z,27.33
2019-02-02T01:49:18.546Z,22.30
2019-02-02T01:51:45.794Z,22.70
2019-02-02T01:54:13.067Z,21.40
2019-02-02T01:56:40.349Z,23.80
2019-02-02T01:59:07.625Z,22.73
2019-02-02T02:01:35.132Z,19.37
2019-02-02T02:04:02.410Z,19.83
2019-02-02T02:06:29.696Z,23.57
2019-02-02T02:08:56.946Z,20.47
2019-02-02T02:11:24.229Z,23.30
2019-02-02T02:13:51.733Z,24.00
2019-02-02T02:16:19.003Z,22.57
2019-02-02T02:18:46.256Z,22.30
2019-02-02T02:21:13.784Z,22.60
2019-02-02T02:23:41.319Z,23.77
2019-02-02T02:26:08.602Z,23.00
2019-02-02T02:28:35.853Z,22.70
2019-02-02T02:31:03.150Z,24.73
2019-02-02T02:33:30.461Z,22.00
2019-02-02T02:35:58.001Z,25.90
2019-02-02T02:38:25.259Z,22.50
2019-02-02T02:40:52.549Z,21.63
2019-02-02T02:43:19.804Z,21.77
2019-02-02T02:45:47.086Z,22.03
2019-02-02T02:48:14.335Z,26.57
2019-02-02T02:50:41.619Z,22.20
2019-02-02T02:53:08.936Z,26.97
2019-02-02T02:55:36.234Z,25.13
2019-02-02T02:58:03.487Z,22.00
2019-02-02T03:00:30.739Z,22.37
2019-02-02T03:02:58.006Z,26.73
2019-02-02T03:05:25.337Z,22.47
2019-02-02T03:07:53.277Z,23.67
2019-02-02T03:10:21.632Z,24.73
2019-02-02T03:12:48.874Z,21.10
2019-02-02T03:15:17.189Z,23.77
2019-02-02T03:17:44.782Z,21.47
2019-02-02T03:20:13.138Z,25.63
2019-02-02T03:22:40.387Z,23.30
2019-02-02T03:25:09.702Z,23.50
2019-02-02T03:27:36.979Z,24.70
2019-02-02T03:30:06.056Z,25.67
2019-02-02T03:32:33.331Z,25.20
2019-02-02T03:35:00.614Z,26.73
2019-02-02T03:37:28.130Z,22.30
2019-02-02T03:39:55.478Z,22.63
2019-02-02T03:42:22.735Z,23.03
2019-02-02T03:44:50.011Z,27.80
2019-02-02T03:47:17.290Z,28.20
2019-02-02T03:49:44.795Z,26.10
2019-02-02T03:52:12.167Z,26.53
2019-02-02T03:54:39.430Z,29.50
2019-02-02T03:57:06.958Z,27.17
2019-02-02T03:59:34.215Z,29.27
2019-02-02T04:02:01.796Z,24.77
2019-02-02T04:04:29.084Z,24.13
2019-02-02T04:06:56.582Z,26.50
2019-02-02T04:09:23.877Z,40.77
2019-02-02T04:11:51.231Z,24.20
2019-02-02T04:14:18.507Z,26.10
2019-02-02T04:16:45.863Z,22.73
2019-02-02T04:19:13.110Z,27.80
2019-02-02T04:21:40.638Z,26.60
2019-02-02T04:24:07.991Z,27.83
2019-02-02T04:26:35.246Z,26.00
2019-02-02T04:29:02.531Z,25.37
2019-02-02T04:31:29.809Z,24.80
2019-02-02T04:33:57.066Z,26.83
2019-02-02T04:36:24.353Z,28.93
2019-02-02T04:38:51.601Z,24.57
2019-02-02T04:41:19.131Z,22.93
2019-02-02T04:43:46.382Z,24.10
2019-02-02T04:46:13.669Z,22.47
2019-02-02T04:48:41.025Z,23.90
2019-02-02T04:51:08.393Z,24.57
2019-02-02T04:53:35.654Z,27.40
2019-02-02T04:56:02.903Z,23.40
2019-02-02T04:58:30.186Z,30.13
2019-02-02T05:00:57.442Z,22.20
2019-02-02T05:03:25.114Z,25.50
2019-02-02T05:05:52.370Z,24.00
2019-02-02T05:08:19.655Z,25.90
2019-02-02T05:10:47.186Z,23.57
2019-02-02T05:13:14.717Z,20.77
2019-02-02T05:15:42.214Z,24.43
2019-02-02T05:18:09.490Z,25.27
2019-02-02T05:20:36.851Z,33.30
2019-02-02T05:23:04.447Z,33.30
2019-02-02T05:25:31.742Z,26.20
2019-02-02T05:27:59.015Z,28.17
2019-02-02T05:30:30.310Z,26.33
2019-02-02T05:32:57.590Z,26.20
2019-02-02T05:35:24.838Z,28.73
2019-02-02T05:37:52.196Z,31.40
2019-02-02T05:40:20.014Z,27.87
2019-02-02T05:42:47.649Z,42.07
2019-02-02T05:45:15.909Z,43.03
2019-02-02T05:47:43.159Z,39.70
2019-02-02T05:50:11.811Z,44.43
2019-02-02T05:52:39.384Z,51.33
2019-02-02T05:55:13.513Z,40.63
2019-02-02T05:57:40.761Z,46.33
2019-02-02T06:00:13.243Z,39.10
2019-02-02T06:02:40.534Z,48.33
2019-02-02T06:05:07.790Z,42.50
2019-02-02T06:07:35.360Z,46.30
2019-02-02T06:10:02.961Z,42.70
2019-02-02T06:12:30.242Z,55.20
2019-02-02T06:14:57.526Z,49.40
2019-02-02T06:17:24.776Z,42.60
2019-02-02T06:19:52.054Z,46.30
2019-02-02T06:22:19.301Z,43.43
2019-02-02T06:24:46.590Z,45.80
2019-02-02T06:27:13.872Z,46.27
2019-02-02T06:29:41.155Z,55.63
2019-02-02T06:32:12.104Z,50.20
2019-02-02T06:34:37.771Z,40.13
2019-02-02T06:37:05.026Z,50.43
2019-02-02T06:39:32.297Z,50.50
2019-02-02T06:41:59.794Z,54.63
2019-02-02T06:44:27.070Z,45.47
2019-02-02T06:46:54.324Z,43.53
2019-02-02T06:49:21.613Z,42.50
2019-02-02T06:51:48.858Z,50.43
2019-02-02T06:54:16.134Z,42.97
2019-02-02T06:56:43.419Z,39.47
2019-02-02T06:59:10.666Z,40.03
2019-02-02T07:01:37.950Z,41.10
2019-02-02T07:04:05.294Z,41.57
2019-02-02T07:06:32.679Z,38.53
2019-02-02T07:08:59.928Z,36.23
2019-02-02T07:11:27.169Z,39.50
2019-02-02T07:13:54.454Z,49.13
2019-02-02T07:16:21.953Z,39.03
2019-02-02T07:18:49.469Z,38.40
2019-02-02T07:21:16.973Z,36.47
2019-02-02T07:23:44.255Z,42.77
2019-02-02T07:26:11.511Z,44.13
2019-02-02T07:28:39.029Z,46.30
2019-02-02T07:31:06.300Z,87.00
2019-02-02T07:33:33.558Z,91.07
2019-02-02T07:36:00.834Z,76.40
2019-02-02T07:38:28.186Z,59.37
2019-02-02T07:40:55.459Z,50.17
2019-02-02T07:43:22.995Z,55.83
2019-02-02T07:45:50.241Z,50.77
2019-02-02T07:48:17.534Z,48.33
2019-02-02T07:50:45.049Z,50.87
2019-02-02T07:53:12.294Z,41.33
2019-02-02T07:55:39.817Z,43.30
2019-02-02T07:58:07.313Z,43.10
2019-02-02T08:00:40.700Z,47.40
2019-02-02T08:03:05.691Z,43.70
2019-02-02T08:05:32.945Z,43.83
2019-02-02T08:08:00.470Z,41.83
2019-02-02T08:10:27.751Z,48.50
2019-02-02T08:12:55.001Z,41.90
2019-02-02T08:15:26.154Z,40.60
2019-02-02T08:17:53.429Z,42.00
2019-02-02T08:20:20.881Z,41.67
2019-02-02T08:22:48.496Z,44.47
2019-02-02T08:25:16.278Z,42.57
2019-02-02T08:27:43.617Z,41.60
2019-02-02T08:30:12.337Z,46.95
2019-02-02T08:32:39.685Z,44.07
2019-02-02T08:35:07.668Z,49.10
2019-02-02T08:37:35.214Z,40.73
2019-02-02T08:40:02.839Z,43.47
2019-02-02T08:42:30.206Z,37.60
2019-02-02T08:44:57.460Z,48.13
2019-02-02T08:47:24.706Z,37.03
2019-02-02T08:49:51.986Z,33.70
2019-02-02T08:52:19.510Z,34.90
2019-02-02T08:54:46.888Z,33.50
2019-02-02T08:57:14.428Z,38.50
2019-02-02T08:59:41.709Z,33.67
2019-02-02T09:02:08.962Z,37.20
2019-02-02T09:04:36.282Z,38.23
2019-02-02T09:07:03.567Z,43.37
2019-02-02T09:09:30.841Z,40.50
2019-02-02T09:11:58.346Z,48.20
2019-02-02T09:14:25.634Z,56.90
2019-02-02T09:16:52.877Z,55.97
2019-02-02T09:19:20.417Z,47.50
2019-02-02T09:21:47.755Z,47.97
2019-02-02T09:24:15.013Z,55.67
2019-02-02T09:26:42.294Z,58.00
2019-02-02T09:29:10.446Z,61.50
2019-02-02T09:31:38.193Z,74.10
2019-02-02T09:34:05.446Z,66.43
2019-02-02T09:36:33.049Z,56.37
2019-02-02T09:39:00.553Z,57.13
2019-02-02T09:41:27.837Z,60.67
2019-02-02T09:43:55.171Z,56.10
2019-02-02T09:46:22.463Z,125.30
2019-02-02T09:48:49.817Z,49.57
2019-02-02T09:51:17.080Z,58.37
2019-02-02T09:53:44.606Z,55.70
2019-02-02T09:56:11.876Z,53.17
2019-02-02T09:58:39.141Z,45.60
2019-02-02T10:01:06.490Z,65.93
2019-02-02T10:03:33.746Z,84.63
2019-02-02T10:06:01.311Z,114.53
2019-02-02T10:08:28.562Z,72.50
2019-02-02T10:10:56.115Z,81.27
2019-02-02T10:13:23.367Z,61.67
2019-02-02T10:15:50.654Z,65.00
2019-02-02T10:18:17.913Z,73.63
2019-02-02T10:20:45.402Z,62.20
2019-02-02T10:23:12.940Z,67.47
2019-02-02T10:25:40.443Z,45.43
2019-02-02T10:28:07.722Z,60.03
2019-02-02T10:30:36.520Z,48.70
2019-02-02T10:33:03.865Z,59.73
2019-02-02T10:35:31.447Z,54.50
2019-02-02T10:37:58.747Z,56.83
2019-02-02T10:40:26.065Z,54.00
2019-02-02T10:42:53.321Z,50.53
2019-02-02T10:45:20.830Z,53.10
2019-02-02T10:47:48.444Z,62.37
2019-02-02T10:50:19.665Z,56.23
2019-02-02T10:52:46.946Z,62.67
2019-02-02T10:55:14.771Z,52.87
2019-02-02T10:57:42.122Z,58.37
2019-02-02T11:00:16.678Z,61.00
2019-02-02T11:02:44.307Z,56.67
2019-02-02T11:05:11.803Z,55.20
2019-02-02T11:07:39.054Z,54.17
2019-02-02T11:10:07.877Z,64.33
2019-02-02T11:12:35.236Z,56.73
2019-02-02T11:15:02.934Z,53.40
2019-02-02T11:17:30.263Z,48.60
2019-02-02T11:19:57.721Z,40.83
2019-02-02T11:22:25.025Z,41.03
2019-02-02T11:24:52.425Z,39.37
2019-02-02T11:27:19.795Z,46.63
2019-02-02T11:29:47.208Z,46.00
2019-02-02T11:32:14.612Z,44.57
2019-02-02T11:34:41.875Z,43.10
2019-02-02T11:37:09.410Z,43.07
2019-02-02T11:39:36.677Z,54.03
2019-02-02T11:42:04.027Z,37.90
2019-02-02T11:44:31.323Z,45.97
2019-02-02T11:46:58.651Z,36.83
2019-02-02T11:49:25.897Z,42.87
2019-02-02T11:51:53.182Z,38.03
2019-02-02T11:54:20.461Z,42.33
2019-02-02T11:56:47.710Z,41.00
2019-02-02T11:59:14.993Z,46.10
2019-02-02T12:01:42.326Z,47.70
2019-02-02T12:04:09.578Z,43.27
2019-02-02T12:06:36.933Z,39.60
2019-02-02T12:09:05.234Z,41.37
2019-02-02T12:11:32.501Z,44.90
2019-02-02T12:14:00.465Z,48.50
2019-02-02T12:16:28.042Z,40.20
2019-02-02T12:18:55.322Z,44.10
2019-02-02T12:21:22.593Z,45.27
2019-02-02T12:23:49.949Z,48.77
2019-02-02T12:26:17.454Z,46.17
2019-02-02T12:28:44.743Z,44.83
2019-02-02T12:31:11.992Z,44.93
2019-02-02T12:33:39.273Z,50.50
2019-02-02T12:36:06.798Z,46.00
2019-02-02T12:38:34.054Z,46.00
2019-02-02T12:41:01.466Z,44.90
2019-02-02T12:43:28.862Z,43.63
2019-02-02T12:45:56.134Z,50.97
2019-02-02T12:48:23.573Z,46.80
2019-02-02T12:50:50.854Z,49.83
2019-02-02T12:53:18.122Z,44.10
2019-02-02T12:55:45.378Z,40.57
2019-02-02T12:58:12.803Z,42.03
2019-02-02T13:00:40.150Z,43.37
2019-02-02T13:03:07.426Z,48.13
2019-02-02T13:05:34.682Z,47.30
2019-02-02T13:08:04.995Z,41.20
2019-02-02T13:10:31.066Z,45.03
2019-02-02T13:12:58.419Z,40.47
2019-02-02T13:15:25.819Z,41.43
2019-02-02T13:17:53.113Z,39.00
2019-02-02T13:20:20.708Z,42.20
2019-02-02T13:22:48.291Z,44.07
2019-02-02T13:25:16.533Z,41.47
2019-02-02T13:27:43.791Z,42.07
2019-02-02T13:30:12.576Z,33.80
2019-02-02T13:32:49.518Z,36.50
2019-02-02T13:35:10.295Z,33.93
2019-02-02T13:37:37.569Z,39.30
2019-02-02T13:40:06.370Z,34.30
2019-02-02T13:42:33.658Z,43.70
2019-02-02T13:45:00.909Z,35.30
2019-02-02T13:47:28.168Z,34.90
2019-02-02T13:49:55.711Z,38.80
2019-02-02T13:52:23.014Z,42.67
2019-02-02T13:54:50.323Z,37.67
2019-02-02T13:57:17.656Z,28.63
2019-02-02T13:59:44.932Z,24.33
2019-02-02T14:02:12.214Z,23.33
2019-02-02T14:04:39.498Z,26.10
2019-02-02T14:07:17.425Z,27.23
2019-02-02T14:09:35.771Z,27.90
2019-02-02T14:12:03.010Z,25.90
2019-02-02T14:14:30.538Z,25.20
2019-02-02T14:16:57.820Z,25.23
2019-02-02T14:19:25.064Z,25.90
2019-02-02T14:21:52.343Z,27.07
2019-02-02T14:24:19.857Z,30.40
2019-02-02T14:26:47.137Z,29.37
2019-02-02T14:29:14.421Z,24.23
2019-02-02T14:31:41.673Z,27.83
2019-02-02T14:34:08.930Z,26.17
2019-02-02T14:36:36.488Z,25.80
2019-02-02T14:39:05.274Z,31.90
2019-02-02T14:41:32.529Z,32.73
2019-02-02T14:43:59.807Z,45.27
2019-02-02T14:46:27.334Z,44.70
2019-02-02T14:48:55.474Z,38.70
2019-02-02T14:51:22.731Z,30.40
2019-02-02T14:53:50.009Z,41.50
2019-02-02T14:56:17.333Z,39.60
2019-02-02T14:58:44.868Z,39.10
2019-02-02T15:01:12.142Z,42.97
2019-02-02T15:03:39.427Z,47.40
2019-02-02T15:06:09.568Z,43.53
2019-02-02T15:08:35.705Z,40.70
2019-02-02T15:11:03.029Z,38.70
2019-02-02T15:13:30.314Z,41.10
2019-02-02T15:15:57.876Z,35.60
2019-02-02T15:18:25.190Z,33.50
2019-02-02T15:20:52.481Z,30.00
2019-02-02T15:23:19.740Z,32.23
2019-02-02T15:25:46.986Z,28.83
2019-02-02T15:28:14.267Z,35.17
2019-02-02T15:30:41.514Z,32.33
2019-02-02T15:33:08.793Z,26.93
2019-02-02T15:35:36.042Z,28.37
2019-02-02T15:38:03.323Z,32.80
2019-02-02T15:40:31.699Z,30.23
2019-02-02T15:42:59.209Z,31.53
2019-02-02T15:45:27.538Z,25.47
2019-02-02T15:47:55.127Z,24.57
2019-02-02T15:50:22.477Z,24.20
2019-02-02T15:52:50.017Z,21.90
2019-02-02T15:55:18.403Z,28.20
2019-02-02T15:57:45.745Z,23.20
2019-02-02T16:00:14.566Z,22.40
2019-02-02T16:02:42.625Z,25.83
2019-02-02T16:05:11.605Z,27.47
2019-02-02T16:07:38.854Z,24.33
2019-02-02T16:10:07.945Z,24.63
2019-02-02T16:12:35.197Z,25.97
2019-02-02T16:15:02.562Z,21.70
2019-02-02T16:17:30.067Z,28.77
2019-02-02T16:19:57.568Z,24.50
2019-02-02T16:22:24.933Z,23.97
2019-02-02T16:24:52.447Z,27.40
2019-02-02T16:27:19.951Z,26.13
2019-02-02T16:29:47.235Z,26.00
2019-02-02T16:32:14.486Z,25.13
2019-02-02T16:34:41.754Z,25.83
2019-02-02T16:37:09.082Z,21.13
2019-02-02T16:39:36.670Z,18.57
2019-02-02T16:42:04.013Z,20.00
2019-02-02T16:44:31.262Z,19.83
2019-02-02T16:46:58.819Z,20.10
2019-02-02T16:49:26.074Z,20.87
2019-02-02T16:51:53.423Z,20.80
2019-02-02T16:54:20.972Z,18.70
2019-02-02T16:56:50.966Z,20.97
2019-02-02T16:59:17.378Z,20.53
2019-02-02T17:01:44.898Z,20.80
2019-02-02T17:04:15.918Z,19.83
2019-02-02T17:06:41.157Z,18.87
2019-02-02T17:09:08.907Z,22.13
2019-02-02T17:11:36.379Z,19.73
2019-02-02T17:14:03.999Z,20.70
2019-02-02T17:16:31.250Z,18.40
2019-02-02T17:18:58.517Z,21.67
2019-02-02T17:21:28.982Z,17.70
2019-02-02T17:23:55.025Z,21.17
2019-02-02T17:26:22.282Z,22.07
2019-02-02T17:28:49.566Z,24.57
2019-02-02T17:31:16.814Z,19.33
2019-02-02T17:33:44.094Z,22.93
2019-02-02T17:36:11.350Z,22.70
2019-02-02T17:38:38.634Z,19.73
2019-02-02T17:41:05.878Z,23.40
2019-02-02T17:43:33.168Z,23.00
2019-02-02T17:46:00.532Z,22.17
2019-02-02T17:48:27.779Z,20.10
2019-02-02T17:50:55.067Z,23.90
2019-02-02T17:53:22.907Z,21.80
2019-02-02T17:55:50.222Z,23.80
2019-02-02T17:58:17.507Z,22.33
2019-02-02T18:00:49.121Z,22.17
2019-02-02T18:03:16.404Z,29.17
2019-02-02T18:05:43.660Z,23.30
2019-02-02T18:08:10.938Z,21.83
2019-02-02T18:10:38.223Z,29.10
2019-02-02T18:13:05.749Z,20.73
2019-02-02T18:15:33.072Z,34.40
2019-02-02T18:18:02.405Z,31.33
2019-02-02T18:20:29.413Z,32.07
2019-02-02T18:22:56.683Z,22.00
2019-02-02T18:25:23.937Z,32.60
2019-02-02T18:27:51.228Z,29.40
2019-02-02T18:30:19.559Z,28.40
2019-02-02T18:32:47.015Z,30.43
2019-02-02T18:35:15.011Z,29.70
2019-02-02T18:37:42.296Z,35.20
2019-02-02T18:40:11.489Z,36.80
2019-02-02T18:42:38.971Z,34.80
2019-02-02T18:45:07.925Z,39.93
2019-02-02T18:47:35.475Z,36.17
2019-02-02T18:50:02.891Z,39.90
2019-02-02T18:52:30.237Z,39.30
2019-02-02T18:54:57.563Z,36.67
2019-02-02T18:57:25.010Z,39.00
2019-02-02T18:59:52.549Z,39.73
2019-02-02T19:02:19.950Z,43.00
2019-02-02T19:04:47.515Z,46.80
2019-02-02T19:07:14.832Z,40.53
2019-02-02T19:09:42.293Z,40.90
2019-02-02T19:12:09.593Z,40.27
2019-02-02T19:14:36.914Z,47.30
2019-02-02T19:17:04.715Z,49.67
2019-02-02T19:19:32.025Z,42.53
2019-02-02T19:21:59.372Z,55.67
2019-02-02T19:24:26.767Z,43.13
2019-02-02T19:26:54.314Z,45.50
2019-02-02T19:29:21.698Z,41.93
2019-02-02T19:31:48.987Z,43.50
2019-02-02T19:34:18.299Z,41.60
2019-02-02T19:36:45.558Z,39.97
2019-02-02T19:39:12.837Z,36.20
2019-02-02T19:41:40.081Z,38.83
2019-02-02T19:44:07.734Z,43.53
2019-02-02T19:46:35.281Z,36.70
2019-02-02T19:49:02.910Z,37.50
2019-02-02T19:51:30.214Z,39.80
2019-02-02T19:53:57.758Z,39.73
2019-02-02T19:56:25.318Z,34.03
2019-02-02T19:58:52.694Z,36.03
2019-02-02T20:01:20.366Z,36.13
2019-02-02T20:03:47.770Z,25.40
2019-02-02T20:06:15.234Z,31.50
2019-02-02T20:08:42.829Z,30.93
2019-02-02T20:11:10.436Z,26.97
2019-02-02T20:13:38.099Z,29.83
2019-02-02T20:16:05.670Z,26.63
2019-02-02T20:18:32.921Z,29.17
2019-02-02T20:21:00.682Z,26.40
2019-02-02T20:23:28.377Z,28.73
2019-02-02T20:25:55.667Z,33.03
2019-02-02T20:28:23.003Z,25.13
2019-02-02T20:30:50.284Z,28.10
2019-02-02T20:33:20.012Z,25.60
2019-02-02T20:35:48.557Z,28.10
2019-02-02T20:38:15.667Z,26.17
2019-02-02T20:40:43.199Z,22.60
2019-02-02T20:43:10.705Z,28.30
2019-02-02T20:45:38.253Z,31.93
2019-02-02T20:48:05.783Z,28.63
2019-02-02T20:50:33.373Z,22.20
2019-02-02T20:53:00.829Z,30.43
2019-02-02T20:55:29.410Z,23.07
2019-02-02T20:57:56.664Z,27.43
2019-02-02T21:00:25.110Z,18.77
2019-02-02T21:02:52.437Z,26.80
2019-02-02T21:05:19.773Z,24.50
2019-02-02T21:07:47.026Z,21.87
2019-02-02T21:10:16.178Z,24.07
2019-02-02T21:12:43.582Z,17.47
2019-02-02T21:15:11.635Z,28.07
2019-02-02T21:17:38.887Z,19.40
2019-02-02T21:20:07.699Z,21.37
2019-02-02T21:22:34.986Z,18.83
2019-02-02T21:25:02.310Z,18.87
2019-02-02T21:27:29.668Z,17.10
2019-02-02T21:29:57.207Z,17.33
2019-02-02T21:32:24.485Z,20.90
2019-02-02T21:34:51.748Z,17.67
2019-02-02T21:37:19.287Z,16.97
2019-02-02T21:39:46.650Z,20.60
2019-02-02T21:42:13.932Z,14.03
2019-02-02T21:44:43.243Z,14.83
2019-02-02T21:47:10.268Z,19.27
2019-02-02T21:49:37.551Z,18.90
2019-02-02T21:52:04.924Z,17.53
2019-02-02T21:54:32.256Z,17.00
2019-02-02T21:56:59.755Z,18.47
2019-02-02T21:59:29.443Z,17.40
2019-02-02T22:01:56.017Z,18.07
2019-02-02T22:04:23.551Z,20.13
2019-02-02T22:06:50.812Z,21.73
2019-02-02T22:09:18.085Z,21.00
2019-02-02T22:11:45.879Z,17.80
2019-02-02T22:14:13.158Z,17.70
2019-02-02T22:16:40.418Z,19.10
2019-02-02T22:19:07.923Z,18.43
2019-02-02T22:21:35.201Z,22.00
2019-02-02T22:24:02.469Z,20.83
2019-02-02T22:26:29.728Z,21.50
2019-02-02T22:28:57.918Z,19.60
2019-02-02T22:31:25.346Z,23.90
2019-02-02T22:33:52.628Z,25.20
2019-02-02T22:36:27.129Z,24.97
2019-02-02T22:38:48.890Z,25.37
2019-02-02T22:41:16.138Z,35.10
2019-02-02T22:43:43.421Z,26.20
2019-02-02T22:46:10.674Z,23.90
2019-02-02T22:48:37.950Z,28.47
2019-02-02T22:51:05.537Z,28.00
2019-02-02T22:53:32.829Z,22.10
2019-02-02T22:56:00.110Z,28.53
2019-02-02T22:58:27.567Z,26.93
2019-02-02T23:01:01.204Z,24.30
2019-02-02T23:03:35.729Z,28.57
2019-02-02T23:06:13.739Z,31.93
2019-02-02T23:08:54.636Z,29.53
2019-02-02T23:11:26.142Z,27.23
2019-02-02T23:14:00.666Z,20.27
2019-02-02T23:16:28.197Z,30.67
2019-02-02T23:18:55.714Z,23.27
2019-02-02T23:21:23.067Z,20.83
2019-02-02T23:23:50.395Z,26.97
2019-02-02T23:26:17.796Z,19.23
2019-02-02T23:28:45.121Z,19.00
2019-02-02T23:31:12.472Z,21.03
2019-02-02T23:33:39.993Z,25.77
2019-02-02T23:36:07.284Z,22.93
2019-02-02T23:38:34.614Z,23.13
2019-02-02T23:41:01.895Z,21.97
2019-02-02T23:43:29.150Z,22.20
2019-02-02T23:45:56.494Z,22.23
2019-02-02T23:48:24.045Z,20.00
2019-02-02T23:50:51.337Z,20.27
2019-02-02T23:53:18.584Z,19.13
2019-02-02T23:55:46.119Z,21.60
2019-02-02T23:58:13.667Z,21.40
